createdAt,value
2023-03-17T00:01:38.188Z,4.68
2023-03-17T00:04:06.188Z,4.15
2023-03-17T00:06:33.917Z,5.05
2023-03-17T00:09:00.553Z,4.82
2023-03-17T00:11:27.857Z,4.47
2023-03-17T00:13:54.715Z,4.68
2023-03-17T00:16:27.282Z,5.45
2023-03-17T00:18:55.110Z,6.05
2023-03-17T00:21:30.741Z,4.30
2023-03-17T00:23:59.616Z,4.72
2023-03-17T00:26:27.859Z,4.80
2023-03-17T00:28:55.357Z,4.78
2023-03-17T00:31:29.478Z,5.15
2023-03-17T00:33:57.153Z,5.78
2023-03-17T00:36:28.422Z,4.55
2023-03-17T00:38:55.774Z,4.78
2023-03-17T00:41:22.776Z,5.20
2023-03-17T00:43:50.727Z,5.68
2023-03-17T00:46:38.163Z,4.82
2023-03-17T00:49:19.504Z,4.75
2023-03-17T00:51:47.446Z,5.97
2023-03-17T00:54:14.538Z,5.07
2023-03-17T00:56:42.568Z,5.85
2023-03-17T00:59:20.836Z,5.38
2023-03-17T01:01:49.304Z,5.57
2023-03-17T01:04:16.373Z,5.93
2023-03-17T01:06:43.343Z,5.85
2023-03-17T01:09:14.776Z,5.07
2023-03-17T01:11:42.722Z,4.85
2023-03-17T01:14:11.172Z,4.90
2023-03-17T01:16:38.798Z,4.97
2023-03-17T01:19:05.965Z,4.78
2023-03-17T01:21:32.813Z,4.82
2023-03-17T01:24:00.537Z,5.53
2023-03-17T01:26:27.450Z,4.82
2023-03-17T01:28:54.766Z,4.53
2023-03-17T01:31:21.467Z,5.07
2023-03-17T01:33:48.069Z,4.90
2023-03-17T01:36:15.726Z,5.78
2023-03-17T01:38:42.362Z,5.93
2023-03-17T01:41:09.235Z,5.00
2023-03-17T01:43:36.683Z,4.40
2023-03-17T01:46:36.696Z,4.82
2023-03-17T01:49:31.551Z,5.65
2023-03-17T01:52:15.599Z,5.45
2023-03-17T01:54:50.421Z,4.53
2023-03-17T01:57:25.471Z,5.05
2023-03-17T02:00:08.170Z,5.25
2023-03-17T02:02:38.280Z,4.85
2023-03-17T02:05:09.518Z,4.28
2023-03-17T02:07:37.861Z,4.10
2023-03-17T02:10:06.432Z,4.53
2023-03-17T02:12:35.720Z,4.07
2023-03-17T02:15:03.347Z,3.85
2023-03-17T02:17:30.035Z,3.97
2023-03-17T02:19:57.058Z,3.38
2023-03-17T02:22:24.071Z,4.00
2023-03-17T02:24:57.828Z,3.90
2023-03-17T02:27:31.295Z,3.85
2023-03-17T02:29:58.266Z,4.68
2023-03-17T02:32:25.606Z,4.55
2023-03-17T02:34:52.257Z,5.28
2023-03-17T02:37:20.243Z,4.55
2023-03-17T02:39:46.900Z,5.07
2023-03-17T02:42:14.089Z,5.25
2023-03-17T02:44:40.976Z,5.30
2023-03-17T02:47:08.643Z,5.63
2023-03-17T02:49:37.383Z,4.57
2023-03-17T02:52:04.896Z,5.90
2023-03-17T02:54:31.914Z,4.40
2023-03-17T02:56:59.162Z,4.90
2023-03-17T02:59:26.657Z,4.47
2023-03-17T03:01:53.887Z,4.78
2023-03-17T03:04:21.063Z,4.65
2023-03-17T03:06:48.328Z,4.35
2023-03-17T03:09:15.432Z,4.30
2023-03-17T03:11:42.883Z,4.80
2023-03-17T03:14:11.140Z,4.07
2023-03-17T03:16:38.436Z,4.30
2023-03-17T03:19:05.415Z,4.40
2023-03-17T03:21:32.282Z,4.25
2023-03-17T03:23:58.962Z,3.78
2023-03-17T03:26:25.693Z,4.53
2023-03-17T03:28:52.334Z,4.47
2023-03-17T03:31:18.943Z,3.97
2023-03-17T03:33:46.078Z,4.50
2023-03-17T03:36:13.471Z,4.32
2023-03-17T03:38:40.176Z,3.67
2023-03-17T03:41:07.361Z,3.30
2023-03-17T03:43:35.030Z,3.30
2023-03-17T03:46:04.028Z,3.60
2023-03-17T03:48:30.870Z,3.47
2023-03-17T03:51:02.084Z,4.18
2023-03-17T03:53:29.410Z,2.90
2023-03-17T03:55:56.555Z,3.25
2023-03-17T03:58:23.544Z,3.13
2023-03-17T04:00:50.436Z,2.58
2023-03-17T04:03:17.286Z,3.40
2023-03-17T04:05:43.946Z,3.10
2023-03-17T04:08:11.430Z,2.90
2023-03-17T04:10:38.284Z,2.85
2023-03-17T04:13:05.150Z,3.13
2023-03-17T04:15:31.753Z,2.63
2023-03-17T04:17:58.408Z,2.95
2023-03-17T04:20:25.053Z,2.80
2023-03-17T04:22:51.818Z,2.78
2023-03-17T04:25:18.721Z,2.78
2023-03-17T04:27:45.413Z,2.72
2023-03-17T04:30:16.959Z,2.72
2023-03-17T04:32:44.557Z,2.33
2023-03-17T04:35:16.809Z,2.20
2023-03-17T04:37:44.134Z,2.35
2023-03-17T04:40:12.998Z,3.00
2023-03-17T04:42:40.560Z,2.35
2023-03-17T04:45:09.488Z,1.88
2023-03-17T04:47:36.160Z,3.47
2023-03-17T04:50:03.852Z,2.83
2023-03-17T04:52:31.154Z,2.35
2023-03-17T04:54:57.817Z,2.90
2023-03-17T04:57:24.608Z,1.98
2023-03-17T04:59:51.793Z,2.08
2023-03-17T05:02:19.468Z,2.33
2023-03-17T05:04:47.828Z,2.10
2023-03-17T05:07:15.090Z,2.03
2023-03-17T05:09:42.026Z,1.90
2023-03-17T05:12:09.953Z,2.15
2023-03-17T05:14:37.265Z,1.92
2023-03-17T05:17:03.986Z,2.10
2023-03-17T05:19:30.764Z,1.60
2023-03-17T05:21:57.424Z,2.13
2023-03-17T05:24:24.019Z,2.45
2023-03-17T05:26:50.697Z,2.20
2023-03-17T05:29:17.354Z,2.17
2023-03-17T05:31:44.397Z,2.78
2023-03-17T05:34:11.794Z,2.33
2023-03-17T05:36:38.603Z,2.78
2023-03-17T05:39:05.319Z,3.35
2023-03-17T05:41:32.063Z,1.98
2023-03-17T05:43:58.745Z,3.00
2023-03-17T05:46:26.619Z,2.40
2023-03-17T05:48:53.316Z,2.20
2023-03-17T05:51:20.540Z,2.10
2023-03-17T05:53:47.303Z,2.40
2023-03-17T05:56:14.765Z,2.75
2023-03-17T05:58:41.672Z,2.53
2023-03-17T06:01:08.288Z,2.03
2023-03-17T06:03:34.974Z,2.33
2023-03-17T06:06:01.676Z,1.83
2023-03-17T06:08:28.293Z,2.20
2023-03-17T06:10:54.979Z,2.40
2023-03-17T06:13:21.600Z,2.20
2023-03-17T06:15:51.446Z,2.67
2023-03-17T06:18:19.823Z,2.38
2023-03-17T06:20:46.935Z,2.35
2023-03-17T06:23:13.803Z,2.58
2023-03-17T06:25:40.533Z,1.90
2023-03-17T06:28:07.193Z,2.38
2023-03-17T06:30:35.713Z,2.63
2023-03-17T06:33:04.070Z,2.50
2023-03-17T06:35:32.077Z,2.42
2023-03-17T06:37:58.995Z,2.28
2023-03-17T06:40:26.240Z,2.80
2023-03-17T06:42:53.698Z,2.53
2023-03-17T06:45:20.559Z,2.33
2023-03-17T06:47:47.173Z,2.08
2023-03-17T06:50:14.165Z,2.30
2023-03-17T06:52:40.981Z,2.05
2023-03-17T06:55:08.640Z,2.65
2023-03-17T06:57:35.845Z,2.65
2023-03-17T07:00:05.158Z,2.30
2023-03-17T07:02:34.013Z,3.58
2023-03-17T07:05:01.380Z,2.65
2023-03-17T07:07:28.496Z,2.60
2023-03-17T07:09:55.439Z,2.42
2023-03-17T07:12:22.035Z,2.17
2023-03-17T07:14:48.653Z,2.42
2023-03-17T07:17:15.334Z,2.45
2023-03-17T07:19:42.489Z,2.38
2023-03-17T07:22:12.197Z,2.88
2023-03-17T07:24:39.686Z,2.80
2023-03-17T07:27:06.423Z,3.25
2023-03-17T07:29:34.044Z,2.55
2023-03-17T07:32:02.136Z,2.33
2023-03-17T07:34:29.429Z,2.35
2023-03-17T07:36:56.052Z,2.70
2023-03-17T07:39:22.710Z,2.03
2023-03-17T07:41:55.125Z,1.90
2023-03-17T07:44:23.148Z,2.85
2023-03-17T07:46:51.592Z,2.55
2023-03-17T07:49:34.039Z,3.05
2023-03-17T07:52:05.830Z,2.33
2023-03-17T07:54:32.671Z,2.63
2023-03-17T07:56:59.444Z,2.63
2023-03-17T07:59:27.623Z,2.35
2023-03-17T08:01:54.824Z,2.40
2023-03-17T08:04:21.490Z,2.33
2023-03-17T08:06:48.168Z,1.98
2023-03-17T08:09:15.038Z,1.85
2023-03-17T08:11:41.762Z,2.17
2023-03-17T08:14:09.531Z,1.85
2023-03-17T08:16:36.329Z,2.35
2023-03-17T08:19:04.238Z,1.85
2023-03-17T08:21:31.048Z,1.98
2023-03-17T08:23:57.741Z,1.98
2023-03-17T08:26:24.702Z,2.40
2023-03-17T08:28:51.414Z,2.17
2023-03-17T08:31:20.336Z,2.53
2023-03-17T08:33:53.152Z,2.10
2023-03-17T08:36:21.453Z,5.60
2023-03-17T08:38:48.752Z,1.95
2023-03-17T08:41:21.926Z,1.88
2023-03-17T08:43:48.854Z,2.13
2023-03-17T08:46:24.762Z,2.30
2023-03-17T08:48:54.204Z,2.00
2023-03-17T08:51:24.492Z,2.30
2023-03-17T08:53:52.794Z,2.15
2023-03-17T08:56:19.891Z,2.20
2023-03-17T08:58:48.912Z,2.78
2023-03-17T09:01:16.730Z,2.45
2023-03-17T09:03:44.108Z,2.03
2023-03-17T09:06:12.413Z,1.50
2023-03-17T09:08:45.333Z,1.88
2023-03-17T09:11:16.626Z,2.95
2023-03-17T09:13:44.333Z,2.08
2023-03-17T09:16:11.041Z,1.77
2023-03-17T09:18:38.222Z,1.80
2023-03-17T09:21:05.906Z,2.72
2023-03-17T09:23:33.680Z,2.22
2023-03-17T09:26:01.233Z,2.75
2023-03-17T09:28:29.120Z,1.60
2023-03-17T09:30:59.750Z,2.65
2023-03-17T09:33:27.222Z,1.85
2023-03-17T09:35:56.944Z,2.42
2023-03-17T09:38:25.933Z,2.00
2023-03-17T09:41:23.888Z,1.73
2023-03-17T09:44:29.415Z,2.17
2023-03-17T09:46:56.031Z,1.60
2023-03-17T09:49:28.888Z,2.25
2023-03-17T09:51:56.181Z,2.00
2023-03-17T09:54:34.056Z,1.50
2023-03-17T09:57:06.194Z,1.58
2023-03-17T09:59:36.883Z,1.83
2023-03-17T10:02:16.585Z,1.85
2023-03-17T10:04:45.018Z,2.15
2023-03-17T10:07:16.998Z,1.27
2023-03-17T10:09:53.638Z,1.70
2023-03-17T10:12:39.578Z,2.15
2023-03-17T10:15:18.483Z,1.60
2023-03-17T10:17:46.205Z,2.90
2023-03-17T10:20:21.765Z,1.63
2023-03-17T10:22:54.799Z,1.52
2023-03-17T10:25:22.601Z,1.67
2023-03-17T10:28:21.938Z,1.15
2023-03-17T10:30:48.765Z,1.25
2023-03-17T10:33:16.134Z,1.60
2023-03-17T10:35:44.905Z,1.55
2023-03-17T10:38:19.514Z,2.30
2023-03-17T10:40:54.669Z,1.70
2023-03-17T10:43:22.281Z,1.92
2023-03-17T10:46:04.353Z,1.80
2023-03-17T10:48:36.837Z,1.98
2023-03-17T10:51:22.300Z,2.28
2023-03-17T10:53:54.233Z,2.22
2023-03-17T10:56:27.416Z,2.20
2023-03-17T10:58:55.633Z,1.70
2023-03-17T11:01:29.794Z,1.30
2023-03-17T11:03:58.629Z,1.80
2023-03-17T11:06:42.021Z,1.55
2023-03-17T11:09:16.884Z,1.67
2023-03-17T11:11:48.843Z,1.73
2023-03-17T11:14:19.705Z,2.67
2023-03-17T11:16:55.809Z,2.58
2023-03-17T11:19:37.490Z,1.52
2023-03-17T11:22:13.492Z,1.65
2023-03-17T11:25:11.920Z,1.70
2023-03-17T11:27:55.499Z,1.42
2023-03-17T11:30:37.679Z,1.58
2023-03-17T11:33:17.350Z,2.40
2023-03-17T11:36:04.035Z,2.63
2023-03-17T11:38:37.342Z,1.55
2023-03-17T11:41:04.980Z,2.33
2023-03-17T11:43:53.034Z,2.00
2023-03-17T11:46:31.475Z,2.15
2023-03-17T11:49:18.904Z,1.55
2023-03-17T11:51:52.169Z,1.20
2023-03-17T11:54:24.802Z,1.33
2023-03-17T11:56:56.824Z,1.50
2023-03-17T11:59:36.300Z,1.45
2023-03-17T12:02:07.134Z,1.63
2023-03-17T12:04:39.275Z,2.53
2023-03-17T12:07:26.666Z,2.88
2023-03-17T12:10:06.165Z,1.63
2023-03-17T12:12:42.997Z,1.70
2023-03-17T12:18:27.071Z,1.10
2023-03-17T12:21:36.640Z,2.00
2023-03-17T12:24:20.121Z,1.40
2023-03-17T12:27:20.686Z,1.55
2023-03-17T12:29:53.350Z,1.63
2023-03-17T12:32:37.031Z,1.60
2023-03-17T12:35:26.312Z,1.45
2023-03-17T12:37:54.658Z,1.95
2023-03-17T12:40:33.710Z,1.88
2023-03-17T12:43:15.806Z,1.20
2023-03-17T12:46:36.341Z,1.02
2023-03-17T12:49:30.554Z,1.45
2023-03-17T12:52:17.149Z,1.10
2023-03-17T12:54:49.178Z,2.47
2023-03-17T12:57:21.452Z,1.27
2023-03-17T12:59:56.572Z,1.38
2023-03-17T13:02:28.937Z,1.20
2023-03-17T13:05:00.705Z,1.83
2023-03-17T13:07:34.497Z,2.72
2023-03-17T13:10:02.075Z,1.98
2023-03-17T13:12:40.542Z,1.80
2023-03-17T13:15:25.670Z,1.15
2023-03-17T13:18:12.253Z,1.50
2023-03-17T13:20:53.836Z,1.38
2023-03-17T13:23:22.081Z,1.20
2023-03-17T13:25:55.488Z,1.30
2023-03-17T13:28:34.808Z,1.88
2023-03-17T13:31:32.142Z,1.23
2023-03-17T13:34:16.547Z,1.25
2023-03-17T13:36:56.038Z,1.58
2023-03-17T13:39:53.543Z,1.27
2023-03-17T13:42:43.370Z,1.15
2023-03-17T13:45:22.105Z,1.77
2023-03-17T13:47:52.422Z,1.35
2023-03-17T13:50:22.164Z,1.23
2023-03-17T13:52:56.228Z,1.40
2023-03-17T13:55:23.762Z,1.20
2023-03-17T13:58:22.525Z,1.35
2023-03-17T14:00:57.939Z,0.95
2023-03-17T14:03:44.699Z,1.23
2023-03-17T14:06:12.928Z,1.42
2023-03-17T14:08:44.458Z,0.90
2023-03-17T14:11:29.008Z,1.20
2023-03-17T14:14:06.058Z,1.00
2023-03-17T14:16:37.560Z,1.98
2023-03-17T14:19:31.204Z,0.90
2023-03-17T14:22:21.375Z,1.40
2023-03-17T14:24:52.534Z,0.77
2023-03-17T14:27:19.947Z,1.70
2023-03-17T14:29:47.448Z,1.48
2023-03-17T14:32:17.647Z,1.30
2023-03-17T14:34:54.412Z,0.80
2023-03-17T14:39:52.248Z,1.52
2023-03-17T14:42:26.417Z,1.40
2023-03-17T14:45:06.693Z,1.17
2023-03-17T14:47:43.467Z,1.15
2023-03-17T14:52:44.931Z,0.90
2023-03-17T14:55:15.575Z,0.80
2023-03-17T14:57:42.848Z,0.93
2023-03-17T15:00:32.011Z,1.25
2023-03-17T15:03:00.551Z,1.10
2023-03-17T15:05:39.948Z,0.65
2023-03-17T15:08:43.289Z,0.77
2023-03-17T15:11:25.811Z,0.82
2023-03-17T15:14:13.732Z,0.98
2023-03-17T15:16:50.057Z,1.05
2023-03-17T15:19:24.055Z,0.90
2023-03-17T15:21:50.840Z,1.02
2023-03-17T15:24:33.121Z,1.00
2023-03-17T15:27:05.591Z,1.10
2023-03-17T15:29:32.439Z,1.25
2023-03-17T15:32:15.335Z,0.70
2023-03-17T15:34:42.526Z,0.80
2023-03-17T15:37:17.624Z,1.10
2023-03-17T15:39:44.303Z,0.82
2023-03-17T15:42:11.079Z,1.10
2023-03-17T15:44:37.717Z,0.90
2023-03-17T15:47:04.455Z,1.83
2023-03-17T15:49:31.197Z,0.90
2023-03-17T15:51:57.865Z,0.90
2023-03-17T15:54:24.507Z,1.13
2023-03-17T15:56:52.110Z,1.17
2023-03-17T15:59:18.754Z,0.98
2023-03-17T16:01:45.652Z,0.80
2023-03-17T16:04:12.802Z,1.23
2023-03-17T16:06:40.456Z,1.50
2023-03-17T16:09:15.070Z,0.70
2023-03-17T16:11:41.703Z,0.85
2023-03-17T16:14:10.306Z,1.20
2023-03-17T16:16:39.786Z,1.77
2023-03-17T16:19:10.264Z,1.10
2023-03-17T16:21:37.373Z,1.60
2023-03-17T16:24:04.196Z,1.27
2023-03-17T16:26:31.123Z,0.90
2023-03-17T16:28:58.304Z,1.20
2023-03-17T16:31:29.452Z,1.17
2023-03-17T16:33:56.832Z,1.23
2023-03-17T16:36:24.607Z,1.30
2023-03-17T16:38:52.765Z,1.00
2023-03-17T16:41:22.755Z,1.27
2023-03-17T16:43:52.164Z,1.25
2023-03-17T16:46:20.381Z,1.33
2023-03-17T16:48:49.879Z,1.08
2023-03-17T16:51:16.922Z,1.38
2023-03-17T16:53:44.150Z,1.05
2023-03-17T16:56:18.012Z,1.67
2023-03-17T16:58:47.466Z,1.40
2023-03-17T17:01:17.922Z,1.70
2023-03-17T17:03:44.671Z,1.48
2023-03-17T17:06:14.342Z,1.15
2023-03-17T17:08:45.348Z,1.55
2023-03-17T17:11:13.878Z,1.23
2023-03-17T17:13:45.484Z,1.38
2023-03-17T17:16:27.650Z,2.10
2023-03-17T17:18:54.842Z,2.25
2023-03-17T17:21:21.625Z,1.10
2023-03-17T17:23:48.418Z,1.30
2023-03-17T17:26:15.433Z,1.45
2023-03-17T17:28:42.093Z,1.50
2023-03-17T17:31:09.123Z,2.00
2023-03-17T17:33:36.955Z,1.60
2023-03-17T17:36:06.553Z,2.03
2023-03-17T17:38:33.363Z,1.50
2023-03-17T17:41:05.876Z,1.73
2023-03-17T17:43:32.850Z,1.17
2023-03-17T17:45:59.566Z,1.85
2023-03-17T17:48:27.280Z,2.53
2023-03-17T17:50:56.131Z,1.25
2023-03-17T17:53:22.793Z,1.52
2023-03-17T17:55:50.063Z,1.70
2023-03-17T17:58:20.424Z,1.60
2023-03-17T18:00:47.349Z,1.85
2023-03-17T18:03:14.005Z,1.70
2023-03-17T18:05:40.738Z,1.00
2023-03-17T18:08:07.765Z,1.25
2023-03-17T18:10:34.958Z,1.67
2023-03-17T18:13:01.807Z,1.25
2023-03-17T18:15:28.980Z,1.27
2023-03-17T18:17:57.819Z,1.55
2023-03-17T18:20:25.796Z,1.35
2023-03-17T18:22:52.910Z,1.25
2023-03-17T18:25:20.317Z,2.08
2023-03-17T18:27:47.820Z,1.50
2023-03-17T18:30:26.395Z,1.38
2023-03-17T18:32:57.301Z,2.30
2023-03-17T18:35:27.174Z,1.98
2023-03-17T18:37:55.430Z,1.45
2023-03-17T18:40:24.151Z,1.60
2023-03-17T18:42:53.724Z,1.75
2023-03-17T18:45:20.449Z,2.33
2023-03-17T18:47:47.065Z,2.38
2023-03-17T18:50:15.581Z,1.35
2023-03-17T18:52:43.810Z,2.05
2023-03-17T18:55:13.006Z,2.03
2023-03-17T18:57:42.557Z,1.70
2023-03-17T19:00:11.933Z,1.58
2023-03-17T19:02:39.919Z,1.65
2023-03-17T19:05:07.601Z,1.73
2023-03-17T19:07:34.769Z,2.25
2023-03-17T19:10:01.499Z,1.23
2023-03-17T19:12:28.730Z,1.55
2023-03-17T19:14:56.952Z,2.38
2023-03-17T19:17:23.841Z,2.10
2023-03-17T19:19:50.851Z,2.13
2023-03-17T19:22:17.980Z,1.90
2023-03-17T19:24:45.781Z,2.97
2023-03-17T19:27:12.403Z,1.63
2023-03-17T19:29:39.041Z,1.60
2023-03-17T19:32:06.493Z,1.60
2023-03-17T19:34:33.197Z,2.28
2023-03-17T19:37:02.516Z,2.30
2023-03-17T19:39:31.722Z,1.20
2023-03-17T19:41:59.354Z,2.17
2023-03-17T19:44:26.377Z,1.63
2023-03-17T19:46:53.248Z,1.83
2023-03-17T19:49:21.201Z,2.42
2023-03-17T19:51:49.128Z,1.48
2023-03-17T19:54:16.595Z,1.63
2023-03-17T19:56:43.191Z,1.65
2023-03-17T19:59:09.777Z,1.48
2023-03-17T20:01:38.022Z,1.98
2023-03-17T20:04:06.976Z,2.33
2023-03-17T20:06:34.677Z,1.77
2023-03-17T20:09:03.955Z,1.98
2023-03-17T20:11:33.997Z,1.95
2023-03-17T20:14:04.542Z,1.45
2023-03-17T20:16:33.747Z,1.83
2023-03-17T20:19:01.591Z,2.00
2023-03-17T20:21:28.800Z,2.70
2023-03-17T20:23:56.405Z,2.03
2023-03-17T20:26:24.540Z,2.22
2023-03-17T20:28:51.696Z,1.65
2023-03-17T20:31:18.695Z,2.00
2023-03-17T20:33:45.366Z,1.27
2023-03-17T20:36:12.956Z,2.00
2023-03-17T20:38:40.105Z,2.20
2023-03-17T20:41:12.813Z,1.73
2023-03-17T20:43:40.388Z,2.47
2023-03-17T20:46:09.129Z,2.17
2023-03-17T20:48:37.297Z,2.72
2023-03-17T20:51:06.295Z,2.13
2023-03-17T20:53:34.506Z,1.77
2023-03-17T20:56:01.160Z,1.98
2023-03-17T20:58:31.505Z,2.78
2023-03-17T21:00:58.557Z,1.60
2023-03-17T21:03:25.381Z,2.13
2023-03-17T21:05:53.500Z,2.10
2023-03-17T21:08:20.311Z,2.70
2023-03-17T21:10:48.027Z,1.90
2023-03-17T21:13:14.755Z,2.72
2023-03-17T21:15:42.494Z,2.40
2023-03-17T21:18:10.147Z,2.35
2023-03-17T21:20:37.617Z,2.72
2023-03-17T21:23:07.748Z,2.25
2023-03-17T21:25:36.295Z,2.55
2023-03-17T21:28:05.100Z,1.98
2023-03-17T21:30:32.636Z,2.60
2023-03-17T21:33:00.910Z,2.70
2023-03-17T21:35:30.479Z,2.45
2023-03-17T21:37:57.615Z,2.65
2023-03-17T21:40:26.174Z,2.20
2023-03-17T21:42:54.829Z,1.83
2023-03-17T21:45:22.104Z,1.65
2023-03-17T21:47:49.711Z,1.65
2023-03-17T21:50:18.575Z,2.95
2023-03-17T21:52:45.581Z,2.15
2023-03-17T21:55:12.275Z,2.08
2023-03-17T21:57:39.031Z,2.05
2023-03-17T22:00:08.021Z,1.85
2023-03-17T22:02:35.437Z,2.03
2023-03-17T22:05:02.699Z,2.30
2023-03-17T22:07:29.458Z,1.90
2023-03-17T22:09:57.875Z,2.42
2023-03-17T22:12:25.340Z,2.08
2023-03-17T22:14:52.570Z,2.10
2023-03-17T22:17:19.268Z,3.20
2023-03-17T22:19:48.646Z,2.60
2023-03-17T22:22:15.473Z,2.25
2023-03-17T22:24:42.858Z,2.00
2023-03-17T22:27:09.537Z,2.40
2023-03-17T22:29:36.777Z,1.70
2023-03-17T22:32:03.613Z,2.33
2023-03-17T22:34:30.230Z,1.92
2023-03-17T22:36:56.970Z,2.20
2023-03-17T22:39:23.599Z,2.22
2023-03-17T22:41:50.673Z,3.25
2023-03-17T22:44:17.727Z,1.92
2023-03-17T22:46:44.355Z,2.70
2023-03-17T22:49:11.421Z,2.10
2023-03-17T22:51:38.614Z,2.20
2023-03-17T22:54:05.373Z,2.40
2023-03-17T22:56:31.996Z,2.28
2023-03-17T22:58:58.670Z,2.10
2023-03-17T23:01:25.907Z,2.65
2023-03-17T23:03:54.333Z,2.13
2023-03-17T23:06:22.093Z,2.80
2023-03-17T23:08:48.896Z,1.88
2023-03-17T23:11:19.102Z,2.65
2023-03-17T23:13:47.793Z,1.70
2023-03-17T23:16:15.458Z,1.90
2023-03-17T23:18:46.537Z,2.05
2023-03-17T23:21:34.902Z,3.25
2023-03-17T23:24:02.276Z,2.08
2023-03-17T23:26:29.147Z,2.70
2023-03-17T23:28:56.034Z,2.85
2023-03-17T23:31:22.774Z,2.85
2023-03-17T23:33:50.538Z,2.38
2023-03-17T23:36:17.821Z,3.13
2023-03-17T23:38:45.669Z,2.63
2023-03-17T23:41:13.160Z,2.28
2023-03-17T23:43:40.566Z,2.28
2023-03-17T23:46:07.269Z,2.42
2023-03-17T23:48:34.038Z,2.80
2023-03-17T23:51:01.136Z,2.92
2023-03-17T23:53:28.433Z,2.85
2023-03-17T23:55:55.380Z,2.17
2023-03-17T23:58:22.887Z,2.63
